Time;durP1;ratioP1;P1;durP2;ratioP2;P2;SDS_P1;SDS_P2;PMS_P1;PMS_P2;Temp;Humidity;BMP_temperature;BMP_pressure;BME280_temperature;BME280_humidity;BME280_pressure;Samples;Min_cycle;Max_cycle;Signal;HPM_P1;HPM_P2
2022/01/17 00:01:46;;;;;;;4.73;2.87;;;;;;;;;;5031549;28;20204;-62
2022/01/17 00:04:13;;;;;;;4.90;3.23;;;;;;;;;;5031386;28;20555;-62
2022/01/17 00:06:41;;;;;;;6.63;3.50;;;;;;;;;;5031247;28;20200;-62
2022/01/17 00:09:09;;;;;;;5.83;3.20;;;;;;;;;;5030678;28;20214;-62
2022/01/17 00:11:41;;;;;;;6.93;3.27;;;;;;;;;;5030874;28;20208;-62
2022/01/17 00:14:12;;;;;;;4.77;3.43;;;;;;;;;;5029013;28;20954;-62
2022/01/17 00:16:44;;;;;;;7.83;3.60;;;;;;;;;;5030485;28;20303;-62
2022/01/17 00:19:37;;;;;;;4.77;3.63;;;;;;;;;;5030641;28;20220;-62
2022/01/17 00:22:04;;;;;;;7.37;3.60;;;;;;;;;;5028689;28;20211;-63
2022/01/17 00:24:32;;;;;;;4.47;3.43;;;;;;;;;;5027400;28;20227;-62
2022/01/17 00:26:59;;;;;;;4.23;3.20;;;;;;;;;;5030467;28;20261;-62
2022/01/17 00:29:26;;;;;;;5.60;3.60;;;;;;;;;;5029431;28;20200;-62
2022/01/17 00:31:55;;;;;;;4.17;3.50;;;;;;;;;;5030568;28;20258;-62
2022/01/17 00:34:22;;;;;;;5.00;3.50;;;;;;;;;;5027858;28;20234;-62
2022/01/17 00:36:49;;;;;;;4.20;3.03;;;;;;;;;;5029512;28;20230;-62
2022/01/17 00:39:16;;;;;;;5.20;3.60;;;;;;;;;;5030602;28;20220;-63
2022/01/17 00:41:44;;;;;;;4.27;3.30;;;;;;;;;;5030531;28;20208;-62
2022/01/17 00:44:11;;;;;;;7.23;3.80;;;;;;;;;;5030450;28;20218;-62
2022/01/17 00:46:38;;;;;;;3.60;3.00;;;;;;;;;;5029656;28;20205;-62
2022/01/17 00:49:06;;;;;;;6.53;4.07;;;;;;;;;;5029711;28;21146;-62
2022/01/17 00:51:33;;;;;;;6.47;3.00;;;;;;;;;;5030025;28;20298;-62
2022/01/17 00:54:00;;;;;;;4.43;3.43;;;;;;;;;;5028531;28;20957;-62
2022/01/17 00:56:28;;;;;;;5.83;3.67;;;;;;;;;;5029977;28;20209;-63
2022/01/17 00:58:55;;;;;;;4.30;3.50;;;;;;;;;;5030245;28;20235;-62
2022/01/17 01:01:22;;;;;;;6.40;3.30;;;;;;;;;;5029908;28;20213;-63
2022/01/17 01:03:49;;;;;;;4.03;3.07;;;;;;;;;;5030199;28;20221;-63
2022/01/17 01:06:21;;;;;;;6.53;3.67;;;;;;;;;;5029067;28;20558;-63
2022/01/17 01:08:48;;;;;;;5.97;3.10;;;;;;;;;;5028911;28;20676;-60
2022/01/17 01:11:15;;;;;;;5.53;3.53;;;;;;;;;;5030168;28;20262;-63
2022/01/17 01:13:42;;;;;;;6.50;2.90;;;;;;;;;;5029873;28;20247;-63
2022/01/17 01:16:22;;;;;;;4.13;3.30;;;;;;;;;;5029358;28;20297;-63
2022/01/17 01:30:02;;;;;;;7.00;2.83;;;;;;;;;;5029554;28;20201;-62
2022/01/17 01:32:36;;;;;;;5.90;4.00;;;;;;;;;;5029474;28;20291;-63
2022/01/17 01:35:09;;;;;;;3.97;2.57;;;;;;;;;;5027474;28;20211;-61
2022/01/17 01:37:38;;;;;;;4.33;3.27;;;;;;;;;;5027392;28;20376;-61
2022/01/17 01:40:06;;;;;;;8.03;3.53;;;;;;;;;;5027427;28;20232;-61
2022/01/17 01:42:33;;;;;;;5.40;3.37;;;;;;;;;;5028190;28;20264;-63
2022/01/17 01:45:02;;;;;;;5.00;2.97;;;;;;;;;;5028278;28;20207;-63
2022/01/17 01:47:29;;;;;;;7.10;3.23;;;;;;;;;;5029373;28;20306;-63
2022/01/17 01:49:56;;;;;;;6.70;3.40;;;;;;;;;;5028844;28;20220;-63
2022/01/17 01:52:23;;;;;;;7.03;2.53;;;;;;;;;;5028954;28;20230;-62
2022/01/17 01:54:52;;;;;;;6.13;3.33;;;;;;;;;;5027829;28;20212;-63
2022/01/17 01:57:19;;;;;;;8.97;3.43;;;;;;;;;;5028503;28;20270;-63
2022/01/17 01:59:46;;;;;;;7.23;3.73;;;;;;;;;;5029115;28;20232;-63
2022/01/17 02:02:14;;;;;;;4.87;2.50;;;;;;;;;;5028313;28;20259;-62
2022/01/17 02:04:41;;;;;;;7.70;3.80;;;;;;;;;;5026884;28;20293;-62
2022/01/17 02:07:08;;;;;;;6.63;3.30;;;;;;;;;;5027941;28;20210;-63
2022/01/17 02:09:37;;;;;;;5.27;3.43;;;;;;;;;;5026702;28;20209;-63
2022/01/17 02:12:06;;;;;;;4.30;2.60;;;;;;;;;;5026574;28;20286;-63
2022/01/17 02:14:33;;;;;;;5.10;2.90;;;;;;;;;;5026711;28;20211;-63
2022/01/17 02:17:02;;;;;;;4.60;3.23;;;;;;;;;;5026603;28;20258;-63
2022/01/17 02:19:30;;;;;;;7.07;3.23;;;;;;;;;;5025471;28;20235;-60
2022/01/17 02:21:59;;;;;;;4.83;2.30;;;;;;;;;;5026075;28;20681;-61
2022/01/17 02:24:27;;;;;;;4.13;2.60;;;;;;;;;;5024789;28;20208;-61
2022/01/17 02:26:54;;;;;;;4.23;2.77;;;;;;;;;;5027051;28;20218;-61
2022/01/17 02:29:21;;;;;;;6.07;2.83;;;;;;;;;;5027521;28;20311;-61
2022/01/17 02:31:49;;;;;;;4.63;2.33;;;;;;;;;;5028234;28;20214;-62
2022/01/17 02:34:16;;;;;;;3.67;2.37;;;;;;;;;;5027699;28;20246;-62
2022/01/17 02:36:44;;;;;;;3.60;2.57;;;;;;;;;;5028314;28;20211;-62
2022/01/17 02:39:12;;;;;;;5.97;3.40;;;;;;;;;;5028090;28;20211;-63
2022/01/17 02:41:40;;;;;;;4.43;2.83;;;;;;;;;;5027918;28;20289;-63
2022/01/17 02:44:08;;;;;;;4.47;2.90;;;;;;;;;;5028011;28;20211;-63
2022/01/17 02:46:35;;;;;;;4.33;2.73;;;;;;;;;;5028456;28;20223;-63
2022/01/17 02:49:02;;;;;;;6.03;3.23;;;;;;;;;;5028838;28;20260;-62
2022/01/17 02:51:29;;;;;;;3.60;2.13;;;;;;;;;;5028705;28;20231;-63
2022/01/17 02:53:57;;;;;;;4.13;2.33;;;;;;;;;;5028097;28;20223;-63
2022/01/17 02:56:25;;;;;;;3.10;2.40;;;;;;;;;;5028205;28;20204;-63
2022/01/17 02:58:52;;;;;;;3.80;2.47;;;;;;;;;;5028730;28;20270;-63
2022/01/17 03:01:20;;;;;;;3.03;2.23;;;;;;;;;;5028250;28;20286;-63
2022/01/17 03:03:47;;;;;;;5.13;3.13;;;;;;;;;;5028536;28;20208;-63
2022/01/17 03:06:14;;;;;;;4.67;2.50;;;;;;;;;;5027679;28;20273;-63
2022/01/17 03:08:42;;;;;;;2.90;2.10;;;;;;;;;;5028384;28;20265;-62
2022/01/17 03:11:11;;;;;;;2.97;1.93;;;;;;;;;;5028529;28;20258;-62
2022/01/17 03:13:40;;;;;;;2.17;2.00;;;;;;;;;;5028561;28;20220;-62
2022/01/17 03:16:09;;;;;;;3.50;2.70;;;;;;;;;;5029389;28;20212;-63
2022/01/17 03:18:39;;;;;;;5.00;2.33;;;;;;;;;;5031754;28;20292;-62
2022/01/17 03:21:06;;;;;;;3.80;2.47;;;;;;;;;;5032107;28;20223;-63
2022/01/17 03:23:33;;;;;;;2.40;2.20;;;;;;;;;;5032559;28;20266;-62
2022/01/17 03:26:00;;;;;;;4.03;2.20;;;;;;;;;;5032484;28;20208;-62
2022/01/17 03:28:27;;;;;;;3.70;2.07;;;;;;;;;;5032321;28;20252;-63
2022/01/17 03:30:56;;;;;;;5.87;2.20;;;;;;;;;;5032301;28;20201;-63
2022/01/17 03:33:23;;;;;;;2.87;2.07;;;;;;;;;;5031263;28;20722;-62
2022/01/17 03:35:50;;;;;;;2.40;2.17;;;;;;;;;;5032423;28;20942;-62
2022/01/17 03:38:18;;;;;;;5.13;2.03;;;;;;;;;;5032151;28;20209;-62
2022/01/17 03:40:47;;;;;;;1.83;1.73;;;;;;;;;;5032109;28;20767;-62
2022/01/17 03:43:14;;;;;;;2.60;1.77;;;;;;;;;;5032350;28;20651;-62
2022/01/17 03:45:41;;;;;;;4.77;2.47;;;;;;;;;;5027711;28;20217;-63
2022/01/17 03:48:10;;;;;;;2.70;1.97;;;;;;;;;;5028086;28;20270;-62
2022/01/17 03:50:37;;;;;;;2.37;2.07;;;;;;;;;;5031507;28;20761;-62
2022/01/17 03:53:05;;;;;;;3.43;2.07;;;;;;;;;;5031927;28;20264;-63
2022/01/17 03:55:34;;;;;;;2.37;2.13;;;;;;;;;;5032002;28;20206;-62
2022/01/17 03:58:01;;;;;;;2.67;1.90;;;;;;;;;;5031732;28;20204;-62
2022/01/17 04:00:31;;;;;;;2.43;1.63;;;;;;;;;;5031094;28;20676;-63
2022/01/17 04:02:58;;;;;;;3.67;1.90;;;;;;;;;;5031703;28;20210;-62
2022/01/17 04:05:26;;;;;;;4.70;2.00;;;;;;;;;;5032054;28;20212;-62
2022/01/17 04:07:53;;;;;;;3.47;2.00;;;;;;;;;;5030961;28;20769;-62
2022/01/17 04:10:21;;;;;;;3.00;2.00;;;;;;;;;;5031542;28;20269;-62
2022/01/17 04:12:48;;;;;;;3.17;1.73;;;;;;;;;;5031033;28;20223;-62
2022/01/17 04:15:16;;;;;;;2.57;1.70;;;;;;;;;;5030054;28;20217;-63
2022/01/17 04:17:43;;;;;;;2.53;1.87;;;;;;;;;;5031713;28;20200;-62
2022/01/17 04:20:14;;;;;;;1.80;1.67;;;;;;;;;;5030541;28;20239;-63
2022/01/17 04:22:45;;;;;;;1.97;1.87;;;;;;;;;;5031506;28;20266;-62
2022/01/17 04:25:12;;;;;;;2.17;1.90;;;;;;;;;;5015008;28;20667;-62
2022/01/17 04:27:45;;;;;;;2.37;1.93;;;;;;;;;;5030973;28;20289;-62
2022/01/17 04:30:13;;;;;;;2.33;2.13;;;;;;;;;;5031088;28;20571;-62
2022/01/17 04:32:41;;;;;;;5.47;2.57;;;;;;;;;;5031026;28;20703;-62
2022/01/17 04:35:08;;;;;;;1.77;1.67;;;;;;;;;;5031346;28;20241;-62
2022/01/17 04:37:35;;;;;;;4.57;1.80;;;;;;;;;;5030379;28;20216;-63
2022/01/17 04:40:04;;;;;;;1.73;1.63;;;;;;;;;;5030801;28;20702;-63
2022/01/17 04:42:31;;;;;;;2.13;2.03;;;;;;;;;;5031094;28;20205;-62
2022/01/17 04:45:08;;;;;;;2.63;1.63;;;;;;;;;;5030465;28;20220;-63
2022/01/17 04:47:36;;;;;;;3.40;2.00;;;;;;;;;;5025120;28;20200;-62
2022/01/17 04:50:03;;;;;;;1.83;1.73;;;;;;;;;;5030676;28;20221;-62
2022/01/17 04:52:30;;;;;;;1.50;1.40;;;;;;;;;;5030246;28;20653;-62
2022/01/17 04:55:01;;;;;;;1.83;1.70;;;;;;;;;;5020589;28;20595;-62
2022/01/17 04:57:30;;;;;;;1.63;1.43;;;;;;;;;;5028960;28;20209;-62
2022/01/17 04:59:57;;;;;;;1.47;1.40;;;;;;;;;;5030308;28;20212;-62
2022/01/17 05:02:24;;;;;;;1.60;1.50;;;;;;;;;;5030227;28;20209;-62
2022/01/17 05:04:55;;;;;;;2.07;1.77;;;;;;;;;;5030383;28;20204;-62
2022/01/17 05:07:22;;;;;;;1.90;1.80;;;;;;;;;;5028397;28;20210;-62
2022/01/17 05:09:49;;;;;;;2.17;1.97;;;;;;;;;;5030537;28;20216;-62
2022/01/17 05:12:16;;;;;;;1.20;1.20;;;;;;;;;;5030719;28;20200;-62
2022/01/17 05:14:48;;;;;;;3.47;2.00;;;;;;;;;;5029063;28;20677;-61
2022/01/17 05:17:38;;;;;;;3.23;1.60;;;;;;;;;;5029994;28;20561;-62
2022/01/17 05:20:06;;;;;;;2.00;1.40;;;;;;;;;;5029870;28;20211;-62
2022/01/17 05:22:34;;;;;;;1.70;1.60;;;;;;;;;;5030524;28;20205;-62
2022/01/17 05:25:02;;;;;;;3.80;1.60;;;;;;;;;;5029777;28;20209;-62
2022/01/17 05:27:29;;;;;;;1.80;1.70;;;;;;;;;;5030444;28;20205;-62
2022/01/17 05:29:57;;;;;;;2.97;1.93;;;;;;;;;;5030248;28;20209;-60
2022/01/17 05:32:24;;;;;;;3.13;1.77;;;;;;;;;;5029545;28;20230;-62
2022/01/17 05:34:51;;;;;;;2.40;1.70;;;;;;;;;;5030558;28;20307;-62
2022/01/17 05:37:18;;;;;;;3.07;1.53;;;;;;;;;;5030288;28;20266;-62
2022/01/17 05:39:46;;;;;;;1.90;1.70;;;;;;;;;;5029834;28;20258;-63
2022/01/17 05:42:17;;;;;;;2.60;1.83;;;;;;;;;;5028998;28;20281;-62
2022/01/17 05:44:44;;;;;;;1.33;1.33;;;;;;;;;;5030124;28;20251;-62
2022/01/17 05:47:12;;;;;;;4.90;1.57;;;;;;;;;;5029812;28;20239;-62
2022/01/17 05:49:39;;;;;;;1.63;1.53;;;;;;;;;;5030370;28;20221;-62
2022/01/17 05:52:07;;;;;;;1.77;1.30;;;;;;;;;;5029311;28;20204;-62
2022/01/17 05:54:34;;;;;;;1.80;1.67;;;;;;;;;;5027253;28;20241;-63
2022/01/17 05:57:01;;;;;;;3.83;2.10;;;;;;;;;;5029503;28;20509;-62
2022/01/17 05:59:29;;;;;;;2.17;1.60;;;;;;;;;;5029702;28;20211;-62
2022/01/17 06:01:56;;;;;;;4.33;1.77;;;;;;;;;;5028645;28;20228;-66
2022/01/17 06:04:24;;;;;;;1.23;1.20;;;;;;;;;;5028830;28;20209;-62
2022/01/17 06:06:51;;;;;;;1.63;1.53;;;;;;;;;;5028802;28;20207;-62
2022/01/17 06:09:18;;;;;;;2.33;1.43;;;;;;;;;;5011968;28;20318;-62
2022/01/17 06:11:45;;;;;;;2.10;1.90;;;;;;;;;;5020479;28;20214;-62
2022/01/17 06:14:16;;;;;;;3.43;1.17;;;;;;;;;;5027278;28;20207;-61
2022/01/17 06:16:43;;;;;;;1.77;1.33;;;;;;;;;;5026369;28;20214;-62
2022/01/17 06:19:10;;;;;;;1.43;1.37;;;;;;;;;;5028595;28;20220;-60
2022/01/17 06:21:39;;;;;;;1.50;1.40;;;;;;;;;;5025277;28;20240;-62
2022/01/17 06:24:09;;;;;;;3.00;1.40;;;;;;;;;;5028172;28;20207;-62
2022/01/17 06:26:36;;;;;;;1.70;1.60;;;;;;;;;;5024925;28;20531;-61
2022/01/17 06:29:04;;;;;;;1.70;1.60;;;;;;;;;;5027975;28;20213;-63
2022/01/17 06:31:31;;;;;;;1.43;1.33;;;;;;;;;;5028344;28;20205;-62
2022/01/17 06:33:58;;;;;;;1.40;1.40;;;;;;;;;;5027651;28;20241;-62
2022/01/17 06:36:25;;;;;;;2.13;1.40;;;;;;;;;;5025825;28;20224;-62
2022/01/17 06:38:53;;;;;;;2.20;1.33;;;;;;;;;;5027874;28;20244;-64
2022/01/17 06:41:20;;;;;;;5.67;2.10;;;;;;;;;;5029029;28;20279;-62
2022/01/17 06:43:48;;;;;;;3.63;1.67;;;;;;;;;;5027005;28;20208;-65
2022/01/17 06:46:15;;;;;;;1.40;1.30;;;;;;;;;;5028436;28;20576;-63
2022/01/17 06:48:46;;;;;;;1.90;1.53;;;;;;;;;;5028839;28;20289;-65
2022/01/17 06:51:13;;;;;;;2.53;1.83;;;;;;;;;;5028164;28;20608;-62
2022/01/17 06:53:40;;;;;;;1.50;1.40;;;;;;;;;;5027319;28;20212;-61
2022/01/17 06:56:09;;;;;;;1.83;1.70;;;;;;;;;;5025404;28;20207;-62
2022/01/17 06:58:36;;;;;;;1.63;1.53;;;;;;;;;;5024317;28;20266;-62
2022/01/17 07:01:04;;;;;;;2.27;1.67;;;;;;;;;;5027745;28;20267;-62
2022/01/17 07:03:31;;;;;;;1.63;1.40;;;;;;;;;;5027889;28;20299;-61
2022/01/17 07:05:59;;;;;;;1.90;1.63;;;;;;;;;;5028008;28;20311;-60
2022/01/17 07:08:26;;;;;;;1.73;1.27;;;;;;;;;;5028044;28;20212;-63
2022/01/17 07:10:53;;;;;;;0.90;0.90;;;;;;;;;;5028014;28;20208;-62
2022/01/17 07:13:21;;;;;;;1.80;1.63;;;;;;;;;;5027867;28;20430;-62
2022/01/17 07:15:48;;;;;;;1.40;1.30;;;;;;;;;;5023647;28;20220;-62
2022/01/17 07:18:15;;;;;;;2.03;1.33;;;;;;;;;;5025370;28;20583;-62
2022/01/17 07:20:42;;;;;;;1.53;1.30;;;;;;;;;;5027577;28;20212;-62
2022/01/17 07:23:09;;;;;;;2.20;1.33;;;;;;;;;;5026831;28;20216;-59
2022/01/17 07:25:38;;;;;;;2.10;1.40;;;;;;;;;;5027922;28;20307;-62
2022/01/17 07:28:05;;;;;;;1.77;1.50;;;;;;;;;;5028132;28;20218;-62
2022/01/17 07:30:34;;;;;;;1.63;1.53;;;;;;;;;;5028195;28;20626;-62
2022/01/17 07:33:01;;;;;;;2.30;1.40;;;;;;;;;;5027746;28;20293;-61
2022/01/17 07:35:28;;;;;;;2.43;1.83;;;;;;;;;;5027872;28;20218;-61
2022/01/17 07:37:55;;;;;;;1.00;1.00;;;;;;;;;;5028015;28;20226;-61
2022/01/17 07:40:22;;;;;;;1.47;1.37;;;;;;;;;;5027949;28;20219;-62
2022/01/17 07:42:49;;;;;;;2.13;1.40;;;;;;;;;;5027970;28;20230;-61
2022/01/17 07:45:18;;;;;;;1.93;1.57;;;;;;;;;;5027447;28;20554;-62
2022/01/17 07:48:07;;;;;;;1.70;1.10;;;;;;;;;;5027686;28;20224;-62
2022/01/17 07:50:33;;;;;;;1.97;1.80;;;;;;;;;;5026837;28;20239;-62
2022/01/17 07:53:01;;;;;;;1.80;1.70;;;;;;;;;;5027954;28;20259;-62
2022/01/17 07:55:28;;;;;;;2.27;1.83;;;;;;;;;;5028109;28;20219;-62
2022/01/17 07:57:55;;;;;;;2.90;1.60;;;;;;;;;;5027979;28;20216;-62
2022/01/17 08:00:23;;;;;;;1.73;1.63;;;;;;;;;;5028075;28;20209;-62
2022/01/17 08:02:53;;;;;;;2.23;2.03;;;;;;;;;;5029923;28;20333;-62
2022/01/17 08:05:20;;;;;;;2.03;1.47;;;;;;;;;;5031871;28;20208;-64
2022/01/17 08:07:47;;;;;;;2.43;2.23;;;;;;;;;;5031565;28;20277;-63
2022/01/17 08:10:15;;;;;;;1.60;1.50;;;;;;;;;;5031668;28;20218;-62
2022/01/17 08:12:42;;;;;;;4.60;1.93;;;;;;;;;;5031607;28;20579;-62
2022/01/17 08:15:09;;;;;;;1.70;1.60;;;;;;;;;;5031401;28;20220;-62
2022/01/17 08:17:36;;;;;;;1.77;1.57;;;;;;;;;;5031220;28;20686;-62
2022/01/17 08:20:05;;;;;;;1.97;1.53;;;;;;;;;;5031246;28;20214;-63
2022/01/17 08:22:33;;;;;;;1.40;1.40;;;;;;;;;;5031196;28;20236;-62
2022/01/17 08:25:00;;;;;;;3.47;1.73;;;;;;;;;;5031046;28;20224;-62
2022/01/17 08:27:27;;;;;;;3.90;2.17;;;;;;;;;;5030671;28;20270;-62
2022/01/17 08:29:54;;;;;;;6.00;2.27;;;;;;;;;;5031201;28;20234;-62
2022/01/17 08:32:22;;;;;;;1.97;1.67;;;;;;;;;;5030807;28;20215;-63
2022/01/17 08:34:49;;;;;;;1.80;1.40;;;;;;;;;;5030930;28;20247;-63
2022/01/17 08:37:17;;;;;;;1.93;1.70;;;;;;;;;;5030848;28;20268;-64
2022/01/17 08:39:44;;;;;;;1.20;1.20;;;;;;;;;;5031004;28;20262;-63
2022/01/17 08:42:12;;;;;;;1.97;1.83;;;;;;;;;;5031031;28;20228;-63
2022/01/17 08:44:39;;;;;;;1.70;1.60;;;;;;;;;;5030975;28;20223;-63
2022/01/17 08:47:06;;;;;;;2.53;1.87;;;;;;;;;;5030768;28;20207;-63
2022/01/17 08:49:33;;;;;;;1.33;1.23;;;;;;;;;;5030683;28;20270;-63
2022/01/17 08:52:00;;;;;;;1.83;1.73;;;;;;;;;;5030162;28;20208;-62
2022/01/17 08:54:29;;;;;;;3.73;2.00;;;;;;;;;;5030474;28;20208;-62
2022/01/17 08:56:56;;;;;;;1.67;1.57;;;;;;;;;;5030825;28;20214;-62
2022/01/17 08:59:23;;;;;;;1.73;1.63;;;;;;;;;;5029911;28;20216;-62
2022/01/17 09:01:50;;;;;;;1.30;1.30;;;;;;;;;;5026695;28;20921;-63
2022/01/17 09:04:17;;;;;;;1.90;1.80;;;;;;;;;;5029049;28;20216;-63
2022/01/17 09:06:44;;;;;;;1.90;1.50;;;;;;;;;;5028684;28;20212;-63
2022/01/17 09:09:11;;;;;;;1.67;1.50;;;;;;;;;;5029632;28;20694;-62
2022/01/17 09:11:40;;;;;;;1.83;1.73;;;;;;;;;;5029445;28;20262;-62
2022/01/17 09:14:08;;;;;;;2.20;2.03;;;;;;;;;;5028241;28;20215;-64
2022/01/17 09:16:35;;;;;;;2.17;1.87;;;;;;;;;;5025181;28;20219;-62
2022/01/17 09:19:02;;;;;;;1.60;1.50;;;;;;;;;;5028932;28;20258;-62
2022/01/17 09:21:29;;;;;;;3.53;1.60;;;;;;;;;;5028390;28;20219;-63
2022/01/17 09:23:58;;;;;;;16.43;2.00;;;;;;;;;;5028981;28;20265;-61
2022/01/17 09:26:25;;;;;;;3.43;1.50;;;;;;;;;;5028877;28;20247;-60
2022/01/17 09:28:54;;;;;;;1.83;1.27;;;;;;;;;;5028556;28;20219;-61
2022/01/17 09:31:21;;;;;;;1.60;1.50;;;;;;;;;;5029387;28;20212;-61
2022/01/17 09:33:48;;;;;;;1.83;1.70;;;;;;;;;;5028997;28;20244;-60
2022/01/17 09:36:15;;;;;;;3.13;2.00;;;;;;;;;;5029365;28;20208;-61
2022/01/17 09:38:43;;;;;;;1.80;1.70;;;;;;;;;;5029313;28;20212;-62
2022/01/17 09:41:10;;;;;;;2.00;1.90;;;;;;;;;;5029173;28;20269;-61
2022/01/17 09:43:37;;;;;;;1.60;1.50;;;;;;;;;;5029255;28;20232;-62
2022/01/17 09:46:06;;;;;;;2.73;1.77;;;;;;;;;;5029688;28;20679;-61
2022/01/17 09:48:37;;;;;;;2.63;1.60;;;;;;;;;;5029526;28;20215;-62
2022/01/17 09:51:15;;;;;;;1.37;1.27;;;;;;;;;;5029134;28;20224;-62
2022/01/17 09:53:42;;;;;;;1.17;1.07;;;;;;;;;;5029351;28;20570;-62
2022/01/17 09:56:10;;;;;;;3.90;1.60;;;;;;;;;;5029162;28;20691;-62
2022/01/17 09:58:37;;;;;;;1.77;1.67;;;;;;;;;;5028664;28;20200;-61
2022/01/17 10:01:06;;;;;;;1.10;1.10;;;;;;;;;;5028212;28;20480;-61
2022/01/17 10:03:33;;;;;;;1.53;1.03;;;;;;;;;;5028271;28;20220;-61
2022/01/17 10:06:00;;;;;;;1.87;1.60;;;;;;;;;;5028786;28;20224;-61
2022/01/17 10:08:27;;;;;;;1.17;1.17;;;;;;;;;;5028071;28;20212;-61
2022/01/17 10:10:57;;;;;;;2.60;1.40;;;;;;;;;;5028103;28;20209;-60
2022/01/17 10:13:25;;;;;;;1.00;1.00;;;;;;;;;;5028328;28;20232;-61
2022/01/17 10:16:03;;;;;;;1.03;1.03;;;;;;;;;;5028555;28;20216;-61
2022/01/17 10:18:37;;;;;;;1.23;1.23;;;;;;;;;;5028414;28;20642;-61
2022/01/17 10:21:08;;;;;;;1.37;1.30;;;;;;;;;;5028471;28;20418;-61
2022/01/17 10:24:01;;;;;;;1.57;1.37;;;;;;;;;;5027872;28;20232;-62
2022/01/17 10:29:43;;;;;;;1.70;1.07;;;;;;;;;;5027733;28;20210;-62
2022/01/17 10:35:08;;;;;;;0.90;0.90;;;;;;;;;;5027012;28;20239;-62
2022/01/17 10:37:35;;;;;;;2.40;1.40;;;;;;;;;;5027732;28;20243;-62
2022/01/17 10:40:05;;;;;;;1.97;1.87;;;;;;;;;;5028135;28;20222;-63
2022/01/17 10:42:34;;;;;;;2.07;1.83;;;;;;;;;;5028151;28;20224;-62
2022/01/17 10:45:04;;;;;;;2.43;1.40;;;;;;;;;;5028232;28;20316;-62
2022/01/17 10:47:32;;;;;;;3.03;1.93;;;;;;;;;;5028071;28;20308;-62
2022/01/17 10:50:02;;;;;;;1.17;1.17;;;;;;;;;;5028197;28;20232;-61
2022/01/17 10:52:30;;;;;;;1.70;1.40;;;;;;;;;;5028370;28;20212;-62
2022/01/17 10:54:58;;;;;;;1.93;1.47;;;;;;;;;;5023573;28;20258;-61
2022/01/17 10:57:25;;;;;;;1.70;1.53;;;;;;;;;;5009148;28;20656;-60
2022/01/17 10:59:52;;;;;;;2.53;2.00;;;;;;;;;;5020394;28;20204;-61
2022/01/17 11:02:19;;;;;;;3.57;2.93;;;;;;;;;;5028885;28;20232;-62
2022/01/17 11:04:49;;;;;;;1.50;1.50;;;;;;;;;;5028823;28;20639;-61
2022/01/17 11:07:18;;;;;;;3.00;2.50;;;;;;;;;;5027646;28;20216;-60
2022/01/17 11:09:48;;;;;;;3.17;2.70;;;;;;;;;;5028213;28;20238;-61
2022/01/17 11:12:16;;;;;;;1.90;1.80;;;;;;;;;;5028374;28;20211;-60
2022/01/17 11:14:44;;;;;;;2.23;1.67;;;;;;;;;;5027991;28;20270;-61
2022/01/17 11:17:15;;;;;;;2.33;1.83;;;;;;;;;;5020737;28;20204;-60
2022/01/17 11:22:29;;;;;;;1.43;1.30;;;;;;;;;;5027312;28;20258;-61
2022/01/17 11:24:56;;;;;;;2.70;2.33;;;;;;;;;;5028237;28;20300;-61
2022/01/17 11:27:23;;;;;;;1.67;1.50;;;;;;;;;;5027751;28;20215;-60
2022/01/17 11:29:51;;;;;;;2.23;2.03;;;;;;;;;;5009243;28;20260;-61
2022/01/17 11:32:18;;;;;;;1.70;1.60;;;;;;;;;;5020277;28;20648;-61
2022/01/17 11:34:45;;;;;;;2.37;2.00;;;;;;;;;;5022071;28;20294;-62
2022/01/17 11:37:13;;;;;;;2.40;1.70;;;;;;;;;;5027644;28;20207;-62
2022/01/17 11:39:51;;;;;;;3.37;2.03;;;;;;;;;;5031599;28;20274;-62
2022/01/17 11:42:31;;;;;;;3.13;2.13;;;;;;;;;;5031434;28;20285;-61
2022/01/17 11:44:59;;;;;;;1.20;1.20;;;;;;;;;;5031356;28;20243;-62
2022/01/17 11:47:44;;;;;;;1.70;1.60;;;;;;;;;;5031027;28;20250;-62
2022/01/17 11:50:31;;;;;;;1.83;1.73;;;;;;;;;;5031762;28;20228;-62
2022/01/17 11:53:00;;;;;;;1.73;1.63;;;;;;;;;;5015150;28;20200;-62
2022/01/17 11:55:54;;;;;;;1.57;1.47;;;;;;;;;;5031493;28;20275;-62
2022/01/17 11:58:24;;;;;;;2.40;2.20;;;;;;;;;;4984727;28;20239;-62
2022/01/17 12:01:09;;;;;;;1.47;1.10;;;;;;;;;;5030483;28;20212;-62
2022/01/17 12:03:40;;;;;;;2.43;1.53;;;;;;;;;;5031246;28;20232;-61
2022/01/17 12:06:18;;;;;;;2.30;1.80;;;;;;;;;;5031007;28;20212;-60
2022/01/17 12:08:46;;;;;;;3.73;1.73;;;;;;;;;;5030845;28;20216;-63
2022/01/17 12:11:26;;;;;;;2.43;1.50;;;;;;;;;;5028487;28;20208;-62
2022/01/17 12:13:59;;;;;;;1.67;1.57;;;;;;;;;;5030384;28;20554;-61
2022/01/17 12:16:37;;;;;;;3.80;1.90;;;;;;;;;;5031565;28;20277;-62
2022/01/17 12:19:08;;;;;;;4.20;2.07;;;;;;;;;;5031068;28;20804;-61
2022/01/17 12:21:35;;;;;;;2.20;2.00;;;;;;;;;;5012461;28;20209;-61
2022/01/17 12:24:26;;;;;;;2.53;1.50;;;;;;;;;;5026538;28;20654;-61
2022/01/17 12:27:03;;;;;;;2.10;1.80;;;;;;;;;;5031089;28;20615;-61
2022/01/17 12:29:37;;;;;;;2.20;2.00;;;;;;;;;;5030932;28;20208;-61
2022/01/17 12:32:05;;;;;;;2.30;2.10;;;;;;;;;;5026094;28;20292;-62
2022/01/17 12:34:40;;;;;;;1.57;1.50;;;;;;;;;;5027441;28;20326;-62
2022/01/17 12:37:27;;;;;;;1.30;1.30;;;;;;;;;;5031420;28;20218;-61
2022/01/17 12:40:07;;;;;;;1.57;1.47;;;;;;;;;;5022195;28;20212;-62
2022/01/17 12:42:48;;;;;;;1.50;1.43;;;;;;;;;;5020559;28;20232;-61
2022/01/17 12:45:20;;;;;;;1.47;1.47;;;;;;;;;;5011371;28;20291;-60
2022/01/17 12:47:47;;;;;;;1.77;1.67;;;;;;;;;;5011054;28;20204;-61
2022/01/17 12:50:14;;;;;;;1.53;1.53;;;;;;;;;;5010540;28;20237;-61
2022/01/17 12:52:42;;;;;;;2.50;1.70;;;;;;;;;;5026518;28;20625;-62
2022/01/17 12:55:10;;;;;;;1.73;1.63;;;;;;;;;;5027127;28;20777;-61
2022/01/17 12:57:40;;;;;;;2.20;1.43;;;;;;;;;;5029601;28;20200;-61
2022/01/17 13:00:10;;;;;;;1.70;1.60;;;;;;;;;;5019876;28;20208;-61
2022/01/17 13:02:45;;;;;;;1.53;1.30;;;;;;;;;;5027201;28;20696;-61
2022/01/17 13:05:12;;;;;;;1.97;1.60;;;;;;;;;;5030753;28;20746;-61
2022/01/17 13:07:40;;;;;;;2.47;2.27;;;;;;;;;;5014146;28;20296;-61
2022/01/17 13:10:09;;;;;;;2.87;1.97;;;;;;;;;;5029100;28;20307;-62
2022/01/17 13:12:36;;;;;;;2.20;2.00;;;;;;;;;;5030686;28;20213;-62
2022/01/17 13:15:04;;;;;;;1.70;1.40;;;;;;;;;;5030744;28;20212;-61
2022/01/17 13:17:33;;;;;;;3.07;1.70;;;;;;;;;;5030738;28;20209;-61
2022/01/17 13:20:01;;;;;;;4.77;1.80;;;;;;;;;;5029771;28;20212;-62
2022/01/17 13:22:36;;;;;;;2.60;1.97;;;;;;;;;;5019386;28;20216;-62
2022/01/17 13:25:04;;;;;;;1.50;1.40;;;;;;;;;;5010752;28;20243;-62
2022/01/17 13:27:33;;;;;;;3.50;1.50;;;;;;;;;;5010611;28;20676;-62
2022/01/17 13:30:00;;;;;;;1.63;1.50;;;;;;;;;;5010853;28;20213;-62
2022/01/17 13:32:34;;;;;;;1.60;1.50;;;;;;;;;;5010700;28;20583;-61
2022/01/17 13:35:08;;;;;;;3.10;2.07;;;;;;;;;;5010370;28;20243;-61
2022/01/17 13:37:35;;;;;;;2.03;1.80;;;;;;;;;;5010432;28;20216;-61
2022/01/17 13:40:12;;;;;;;1.93;1.83;;;;;;;;;;5010541;28;20259;-61
2022/01/17 13:42:44;;;;;;;2.73;1.93;;;;;;;;;;5010418;28;20266;-61
2022/01/17 13:45:12;;;;;;;1.50;1.40;;;;;;;;;;5009685;28;20319;-61
2022/01/17 13:47:39;;;;;;;3.23;1.70;;;;;;;;;;5010638;28;20213;-61
2022/01/17 13:50:07;;;;;;;1.60;1.50;;;;;;;;;;5010348;28;20233;-61
2022/01/17 13:52:35;;;;;;;1.67;1.57;;;;;;;;;;5010367;28;20209;-62
2022/01/17 13:55:02;;;;;;;2.13;1.63;;;;;;;;;;5010026;28;20208;-61
2022/01/17 13:57:29;;;;;;;2.20;1.73;;;;;;;;;;5009531;28;20213;-61
2022/01/17 13:59:57;;;;;;;2.53;2.17;;;;;;;;;;5009612;28;20217;-62
2022/01/17 14:02:27;;;;;;;5.10;2.70;;;;;;;;;;5009954;28;20263;-61
2022/01/17 14:04:55;;;;;;;2.97;2.23;;;;;;;;;;5009212;28;20232;-62
2022/01/17 14:07:24;;;;;;;1.87;1.50;;;;;;;;;;5009331;28;20253;-61
2022/01/17 14:09:51;;;;;;;2.57;2.33;;;;;;;;;;5009303;28;20266;-61
2022/01/17 14:12:19;;;;;;;2.47;2.27;;;;;;;;;;5008518;28;20207;-62
2022/01/17 14:14:51;;;;;;;2.60;1.87;;;;;;;;;;5009043;28;20288;-61
2022/01/17 14:17:25;;;;;;;4.77;2.53;;;;;;;;;;5009045;28;20216;-68
2022/01/17 14:19:52;;;;;;;2.20;2.00;;;;;;;;;;5008338;28;20209;-61
2022/01/17 14:22:20;;;;;;;6.10;2.77;;;;;;;;;;5008232;28;20209;-61
2022/01/17 14:24:49;;;;;;;3.43;2.73;;;;;;;;;;5008701;28;20228;-64
2022/01/17 14:27:18;;;;;;;4.50;2.17;;;;;;;;;;5008859;28;20259;-60
2022/01/17 14:29:46;;;;;;;3.10;2.13;;;;;;;;;;5002822;28;20776;-63
2022/01/17 14:32:14;;;;;;;4.07;2.20;;;;;;;;;;5004505;28;20212;-61
2022/01/17 14:34:42;;;;;;;4.50;2.50;;;;;;;;;;5013906;28;20229;-61
2022/01/17 14:37:09;;;;;;;2.87;2.43;;;;;;;;;;5018246;28;20302;-61
2022/01/17 14:39:37;;;;;;;3.30;2.10;;;;;;;;;;5024730;28;20200;-61
2022/01/17 14:42:14;;;;;;;3.37;2.53;;;;;;;;;;5020330;28;20675;-61
2022/01/17 14:44:42;;;;;;;8.80;2.00;;;;;;;;;;5025091;28;20305;-61
2022/01/17 14:47:10;;;;;;;4.40;2.60;;;;;;;;;;5024831;28;20671;-61
2022/01/17 14:49:38;;;;;;;3.77;2.50;;;;;;;;;;5024922;28;20262;-61
2022/01/17 14:52:12;;;;;;;3.00;2.53;;;;;;;;;;5023718;28;20674;-61
2022/01/17 14:54:47;;;;;;;3.57;2.50;;;;;;;;;;5024266;28;20215;-61
2022/01/17 15:00:06;;;;;;;2.10;1.90;;;;;;;;;;5024633;28;20215;-61
2022/01/17 15:02:37;;;;;;;2.50;2.30;;;;;;;;;;5023867;28;20204;-62
2022/01/17 15:05:04;;;;;;;2.77;2.57;;;;;;;;;;5023913;28;20226;-61
2022/01/17 15:07:31;;;;;;;2.93;2.53;;;;;;;;;;5024728;28;20266;-62
2022/01/17 15:09:58;;;;;;;4.23;2.33;;;;;;;;;;5024638;28;20784;-61
2022/01/17 15:12:29;;;;;;;3.43;2.67;;;;;;;;;;5021234;28;20220;-62
2022/01/17 15:14:56;;;;;;;2.73;2.47;;;;;;;;;;5024531;28;20212;-61
2022/01/17 15:17:24;;;;;;;3.03;2.17;;;;;;;;;;5023258;28;20274;-62